KALO/ALO METAR and TAF weather

Enter ICAO airport designator
Station Type Date Time Source
KALO METAR 2019/10/16 18:54 UTC NOAA

KALO 161854Z 32009KT 10SM OVC036 09/01 A3010 RMK AO2 SLP198 T00940011


Station Type Date Time Source
KALO Decoded METAR 2019/10/16 18:54 UTC NOAA

WATERLOO MUNICIPAL AIRPORT, IA, United States (KALO) 42-33N 92-24W 264M
Oct 16, 2019 - 02:54 PM EDT / 2019.10.16 1854 UTC
Wind: from the NW (320 degrees) at 10 MPH (9 KT):0
Visibility: 10 mile(s):0
Sky conditions: overcast
Temperature: 48.9 F (9.4 C)
Dew Point: 34.0 F (1.1 C)
Relative Humidity: 56%
Pressure (altimeter): 30.1 in. Hg (1019 hPa)
ob: KALO 161854Z 32009KT 10SM OVC036 09/01 A3010 RMK AO2 SLP198 T00940011
cycle: 19

Station Type Date Time Source
KALO TAF 2019/10/16 20:40 UTC NOAA

TAF
AMD KALO 161938Z 1620/1718 32015KT P6SM OVC035
FM170400 00000KT P6SM BKN150
FM171700 16008KT P6SM SCT200

Example: see airport list